KSUA/SUA METAR and TAF weather

Enter ICAO airport designator
Station Type Date Time Source
KSUA METAR 2022/01/27 22:50 UTC NOAA

KSUA 272250Z 36007KT 7SM SCT030 20/17 A3004


Station Type Date Time Source
KSUA Decoded METAR 2022/01/27 22:50 UTC NOAA

Stuart, Witham Field Airport, FL, United States (KSUA) 27-10-54N 080-13-16W
Jan 27, 2022 - 05:50 PM EST / 2022.01.27 2250 UTC
Wind: from the N (360 degrees) at 8 MPH (7 KT):0
Visibility: 7 mile(s):0
Sky conditions: partly cloudy
Temperature: 68 F (20 C)
Dew Point: 62 F (17 C)
Relative Humidity: 82%
Pressure (altimeter): 30.04 in. Hg (1017 hPa)
ob: KSUA 272250Z 36007KT 7SM SCT030 20/17 A3004
cycle: 23

Station Type Date Time Source
KSUA TAF 2022/01/27 18:30 UTC NOAA

TAF KSUA 271726Z 2718/2818 36010KT P6SM FEW025 BKN035
FM280100 34004KT P6SM SCT035
FM281000 30003KT P6SM SCT020 BKN030
FM281500 29008KT P6SM SCT030 BKN040
AMD NOT SKED

Example: see airport list